WZZ1967 EYVI-EETN
Flight info
| Callsign | WZZ1967 |
|---|---|
| Flight time | 0h 53m |
| Altitude | 34000 |
| Route | ATMEZ DCT TAGOL DCT LUNIT DCT TUSAS DCT DOLAT DCT KEMET |
| Aircraft | A21N/M-SDE2E3FGHIRWXY/LB1 |
Departure
| Time | 2026-05-05 03:17 |
|---|---|
| Airport | Vilnius International Airport (EYVI) |
Arrival
| Time | 2026-05-05 04:10 |
|---|---|
| Airport | Lennart Meri Tallinn Airport (EETN) |
| Time | Latitude | Longitude | Altitude | Speed | Heading |
|---|---|---|---|---|---|
| 2026-05-05 03:12 | 54.64016 | 25.28726 | 648 ft | 17 kts | 174° |
| 2026-05-05 03:12 | 54.63977 | 25.28654 | 648 ft | 0 kts | 187° |
| 2026-05-05 03:12 | 54.63950 | 25.28643 | 644 ft | 9 kts | 200° |
| 2026-05-05 03:12 | 54.63883 | 25.28596 | 640 ft | 12 kts | 201° |
| 2026-05-05 03:13 | 54.63792 | 25.28533 | 638 ft | 16 kts | 201° |
| 2026-05-05 03:13 | 54.63675 | 25.28454 | 627 ft | 20 kts | 200° |
| 2026-05-05 03:13 | 54.63529 | 25.28364 | 618 ft | 24 kts | 199° |
| 2026-05-05 03:13 | 54.63362 | 25.28249 | 616 ft | 27 kts | 204° |
| 2026-05-05 03:14 | 54.63188 | 25.28114 | 623 ft | 28 kts | 203° |
| 2026-05-05 03:14 | 54.63006 | 25.27985 | 622 ft | 29 kts | 200° |
| 2026-05-05 03:14 | 54.62817 | 25.27858 | 607 ft | 29 kts | 202° |
| 2026-05-05 03:14 | 54.62624 | 25.27722 | 613 ft | 31 kts | 202° |
| 2026-05-05 03:15 | 54.62508 | 25.27672 | 613 ft | 8 kts | 153° |
| 2026-05-05 03:15 | 54.62454 | 25.27744 | 611 ft | 11 kts | 143° |
| 2026-05-05 03:15 | 54.62421 | 25.27853 | 616 ft | 11 kts | 76° |
| 2026-05-05 03:15 | 54.62475 | 25.27930 | 607 ft | 6 kts | 20° |
| 2026-05-05 03:16 | 54.62500 | 25.27946 | 607 ft | 5 kts | 19° |
| 2026-05-05 03:16 | 54.62555 | 25.27981 | 607 ft | 27 kts | 21° |
| 2026-05-05 03:16 | 54.62974 | 25.28273 | 614 ft | 102 kts | 21° |
| 2026-05-05 03:16 | 54.63825 | 25.28862 | 642 ft | 155 kts | 21° |
| 2026-05-05 03:17 | 54.64885 | 25.29612 | 1019 ft | 167 kts | 21° |
| 2026-05-05 03:17 | 54.65971 | 25.30378 | 1632 ft | 170 kts | 18° |
| 2026-05-05 03:17 | 54.67112 | 25.31067 | 2132 ft | 182 kts | 20° |
| 2026-05-05 03:17 | 54.68352 | 25.31966 | 2485 ft | 206 kts | 20° |
| 2026-05-05 03:18 | 54.69753 | 25.32959 | 2883 ft | 229 kts | 20° |
| 2026-05-05 03:18 | 54.71283 | 25.34029 | 3481 ft | 243 kts | 20° |
| 2026-05-05 03:18 | 54.72868 | 25.35138 | 4314 ft | 248 kts | 19° |
| 2026-05-05 03:18 | 54.74482 | 25.36265 | 5182 ft | 252 kts | 19° |
| 2026-05-05 03:19 | 54.77796 | 25.38572 | 6798 ft | 262 kts | 18° |
| 2026-05-05 03:19 | 54.79498 | 25.39742 | 7579 ft | 265 kts | 14° |
| 2026-05-05 03:19 | 54.81304 | 25.40240 | 8269 ft | 265 kts | 351° |
| 2026-05-05 03:20 | 54.83152 | 25.39652 | 8756 ft | 277 kts | 341° |
| 2026-05-05 03:20 | 54.85047 | 25.38823 | 9396 ft | 286 kts | 341° |
| 2026-05-05 03:20 | 54.86997 | 25.37977 | 10101 ft | 293 kts | 341° |
| 2026-05-05 03:20 | 54.89043 | 25.37106 | 10512 ft | 312 kts | 341° |
| 2026-05-05 03:21 | 54.91215 | 25.36206 | 10959 ft | 326 kts | 341° |
| 2026-05-05 03:21 | 54.93433 | 25.35302 | 11643 ft | 332 kts | 341° |
| 2026-05-05 03:21 | 54.95705 | 25.34380 | 12389 ft | 335 kts | 341° |
| 2026-05-05 03:21 | 54.97985 | 25.33453 | 13149 ft | 338 kts | 341° |
| 2026-05-05 03:22 | 55.00294 | 25.32520 | 13874 ft | 342 kts | 341° |
| 2026-05-05 03:22 | 55.02624 | 25.31573 | 14579 ft | 346 kts | 341° |
| 2026-05-05 03:22 | 55.04984 | 25.30613 | 15274 ft | 350 kts | 341° |
| 2026-05-05 03:22 | 55.07337 | 25.29647 | 15934 ft | 354 kts | 341° |
| 2026-05-05 03:23 | 55.09747 | 25.28667 | 16590 ft | 358 kts | 341° |
| 2026-05-05 03:23 | 55.12183 | 25.27668 | 17239 ft | 362 kts | 340° |
| 2026-05-05 03:23 | 55.14647 | 25.26651 | 17868 ft | 365 kts | 340° |
| 2026-05-05 03:23 | 55.17136 | 25.25637 | 18483 ft | 369 kts | 340° |
| 2026-05-05 03:24 | 55.19649 | 25.24612 | 19068 ft | 372 kts | 340° |
| 2026-05-05 03:24 | 55.22179 | 25.23579 | 19669 ft | 375 kts | 340° |
| 2026-05-05 03:24 | 55.24736 | 25.22531 | 20254 ft | 378 kts | 340° |
| 2026-05-05 03:24 | 55.27301 | 25.21474 | 20820 ft | 381 kts | 340° |
| 2026-05-05 03:25 | 55.29906 | 25.20486 | 21366 ft | 387 kts | 345° |
| 2026-05-05 03:25 | 55.32634 | 25.20248 | 21889 ft | 398 kts | 355° |
| 2026-05-05 03:25 | 55.35415 | 25.20564 | 22403 ft | 403 kts | 358° |
| 2026-05-05 03:25 | 55.38219 | 25.20976 | 22904 ft | 406 kts | 358° |
| 2026-05-05 03:26 | 55.41050 | 25.21375 | 23411 ft | 409 kts | 357° |
| 2026-05-05 03:26 | 55.43896 | 25.21748 | 23894 ft | 412 kts | 357° |
| 2026-05-05 03:26 | 55.46759 | 25.22079 | 24358 ft | 412 kts | 354° |
| 2026-05-05 03:26 | 55.49617 | 25.21975 | 24809 ft | 411 kts | 350° |
| 2026-05-05 03:27 | 55.52470 | 25.21727 | 25260 ft | 412 kts | 349° |
| 2026-05-05 03:27 | 55.55353 | 25.21460 | 25702 ft | 415 kts | 349° |
| 2026-05-05 03:27 | 55.57267 | 25.21284 | 25984 ft | 416 kts | 349° |
| 2026-05-05 03:27 | 55.61143 | 25.20936 | 26549 ft | 419 kts | 349° |
| 2026-05-05 03:28 | 55.63075 | 25.20762 | 26811 ft | 420 kts | 349° |
| 2026-05-05 03:28 | 55.66000 | 25.20500 | 27201 ft | 422 kts | 349° |
| 2026-05-05 03:28 | 55.68948 | 25.20237 | 27598 ft | 424 kts | 349° |
| 2026-05-05 03:28 | 55.71891 | 25.19975 | 27957 ft | 426 kts | 349° |
| 2026-05-05 03:29 | 55.74868 | 25.19710 | 28321 ft | 428 kts | 349° |
| 2026-05-05 03:29 | 55.77849 | 25.19448 | 28677 ft | 429 kts | 349° |
| 2026-05-05 03:29 | 55.80841 | 25.19181 | 29016 ft | 431 kts | 349° |
| 2026-05-05 03:29 | 55.83844 | 25.18912 | 29345 ft | 433 kts | 349° |
| 2026-05-05 03:30 | 55.86863 | 25.18642 | 29661 ft | 435 kts | 349° |
| 2026-05-05 03:30 | 55.89892 | 25.18368 | 29987 ft | 436 kts | 349° |
| 2026-05-05 03:30 | 55.92933 | 25.18096 | 30289 ft | 438 kts | 349° |
| 2026-05-05 03:30 | 55.95980 | 25.17826 | 30566 ft | 440 kts | 349° |
| 2026-05-05 03:31 | 55.99008 | 25.17553 | 30838 ft | 442 kts | 349° |
| 2026-05-05 03:31 | 56.02084 | 25.17275 | 31102 ft | 444 kts | 349° |
| 2026-05-05 03:31 | 56.05174 | 25.16994 | 31375 ft | 446 kts | 349° |
| 2026-05-05 03:31 | 56.08285 | 25.16712 | 31629 ft | 447 kts | 349° |
| 2026-05-05 03:32 | 56.11390 | 25.16432 | 31872 ft | 449 kts | 349° |
| 2026-05-05 03:32 | 56.14524 | 25.16148 | 32117 ft | 451 kts | 349° |
| 2026-05-05 03:32 | 56.17671 | 25.15911 | 32329 ft | 455 kts | 352° |
| 2026-05-05 03:32 | 56.20850 | 25.16004 | 32587 ft | 458 kts | 354° |
| 2026-05-05 03:33 | 56.24025 | 25.16138 | 32875 ft | 457 kts | 354° |
| 2026-05-05 03:33 | 56.27206 | 25.16276 | 33150 ft | 457 kts | 354° |
| 2026-05-05 03:33 | 56.30389 | 25.16415 | 33466 ft | 454 kts | 354° |
| 2026-05-05 03:33 | 56.33513 | 25.16555 | 33794 ft | 447 kts | 354° |
| 2026-05-05 03:34 | 56.39683 | 25.16822 | 33866 ft | 441 kts | 354° |
| 2026-05-05 03:34 | 56.45823 | 25.17080 | 33852 ft | 441 kts | 354° |
| 2026-05-05 03:35 | 56.51899 | 25.16728 | 33850 ft | 436 kts | 348° |
| 2026-05-05 03:35 | 56.57955 | 25.16006 | 33851 ft | 436 kts | 349° |
| 2026-05-05 03:36 | 56.64012 | 25.15283 | 33850 ft | 437 kts | 349° |
| 2026-05-05 03:36 | 56.70035 | 25.14564 | 33850 ft | 437 kts | 349° |
| 2026-05-05 03:37 | 56.76107 | 25.13838 | 33849 ft | 437 kts | 349° |
| 2026-05-05 03:37 | 56.82179 | 25.13113 | 33850 ft | 437 kts | 349° |
| 2026-05-05 03:38 | 56.88245 | 25.12383 | 33849 ft | 438 kts | 349° |
| 2026-05-05 03:38 | 56.94336 | 25.11645 | 33849 ft | 437 kts | 349° |
| 2026-05-05 03:39 | 57.00396 | 25.10908 | 33842 ft | 438 kts | 349° |
| 2026-05-05 03:39 | 57.06501 | 25.10171 | 33839 ft | 439 kts | 349° |
| 2026-05-05 03:40 | 57.12590 | 25.09429 | 33839 ft | 438 kts | 349° |
| 2026-05-05 03:40 | 57.18686 | 25.08683 | 33836 ft | 438 kts | 349° |
| 2026-05-05 03:41 | 57.24734 | 25.07944 | 33831 ft | 438 kts | 349° |
| 2026-05-05 03:41 | 57.30831 | 25.07195 | 33827 ft | 439 kts | 349° |
| 2026-05-05 03:42 | 57.36920 | 25.06442 | 33821 ft | 439 kts | 349° |
| 2026-05-05 03:42 | 57.43022 | 25.05687 | 33820 ft | 439 kts | 349° |
| 2026-05-05 03:43 | 57.49131 | 25.04928 | 33811 ft | 439 kts | 350° |
| 2026-05-05 03:43 | 57.55224 | 25.04170 | 33805 ft | 439 kts | 350° |
| 2026-05-05 03:44 | 57.58254 | 25.03791 | 33551 ft | 431 kts | 349° |
| 2026-05-05 03:44 | 57.61204 | 25.03428 | 33276 ft | 420 kts | 349° |
| 2026-05-05 03:44 | 57.64101 | 25.03066 | 33014 ft | 416 kts | 349° |
| 2026-05-05 03:44 | 57.66981 | 25.02705 | 32760 ft | 413 kts | 349° |
| 2026-05-05 03:45 | 57.69803 | 25.02350 | 32512 ft | 411 kts | 349° |
| 2026-05-05 03:45 | 57.72659 | 25.01992 | 32262 ft | 410 kts | 349° |
| 2026-05-05 03:45 | 57.75498 | 25.01633 | 32012 ft | 409 kts | 349° |
| 2026-05-05 03:45 | 57.78322 | 25.01274 | 31764 ft | 407 kts | 349° |
| 2026-05-05 03:46 | 57.81154 | 25.00915 | 31511 ft | 405 kts | 349° |
| 2026-05-05 03:46 | 57.83927 | 25.00562 | 31262 ft | 403 kts | 349° |
| 2026-05-05 03:46 | 57.86752 | 25.00202 | 31008 ft | 401 kts | 349° |
| 2026-05-05 03:46 | 57.89537 | 24.99848 | 30680 ft | 399 kts | 349° |
| 2026-05-05 03:47 | 57.92288 | 24.99500 | 30168 ft | 396 kts | 349° |
| 2026-05-05 03:47 | 57.95061 | 24.99142 | 29243 ft | 402 kts | 349° |
| 2026-05-05 03:47 | 57.97817 | 24.98782 | 28295 ft | 406 kts | 349° |
| 2026-05-05 03:47 | 58.00661 | 24.98361 | 27682 ft | 396 kts | 345° |
| 2026-05-05 03:48 | 58.03260 | 24.97285 | 27234 ft | 379 kts | 337° |
| 2026-05-05 03:48 | 58.05786 | 24.95905 | 26763 ft | 368 kts | 336° |
| 2026-05-05 03:48 | 58.08199 | 24.94541 | 26299 ft | 362 kts | 336° |
| 2026-05-05 03:48 | 58.10623 | 24.93175 | 25838 ft | 360 kts | 336° |
| 2026-05-05 03:49 | 58.12984 | 24.91857 | 25391 ft | 358 kts | 336° |
| 2026-05-05 03:49 | 58.15366 | 24.90538 | 24949 ft | 355 kts | 336° |
| 2026-05-05 03:49 | 58.17732 | 24.89231 | 24481 ft | 352 kts | 336° |
| 2026-05-05 03:49 | 58.20071 | 24.87939 | 24018 ft | 348 kts | 336° |
| 2026-05-05 03:50 | 58.22390 | 24.86659 | 23569 ft | 346 kts | 336° |
| 2026-05-05 03:50 | 58.24702 | 24.85384 | 23127 ft | 344 kts | 336° |
| 2026-05-05 03:50 | 58.26977 | 24.84123 | 22695 ft | 343 kts | 336° |
| 2026-05-05 03:50 | 58.29278 | 24.82849 | 22243 ft | 341 kts | 336° |
| 2026-05-05 03:51 | 58.31552 | 24.81588 | 21792 ft | 339 kts | 336° |
| 2026-05-05 03:51 | 58.33813 | 24.80329 | 21336 ft | 338 kts | 335° |
| 2026-05-05 03:51 | 58.36054 | 24.79082 | 20889 ft | 336 kts | 335° |
| 2026-05-05 03:51 | 58.38300 | 24.77831 | 20447 ft | 334 kts | 335° |
| 2026-05-05 03:52 | 58.40526 | 24.76587 | 20037 ft | 332 kts | 335° |
| 2026-05-05 03:52 | 58.42732 | 24.75354 | 19627 ft | 329 kts | 335° |
| 2026-05-05 03:52 | 58.44917 | 24.74132 | 19219 ft | 327 kts | 335° |
| 2026-05-05 03:52 | 58.47096 | 24.72913 | 18814 ft | 324 kts | 335° |
| 2026-05-05 03:53 | 58.49251 | 24.71706 | 18424 ft | 322 kts | 335° |
| 2026-05-05 03:53 | 58.51397 | 24.70501 | 18038 ft | 320 kts | 335° |
| 2026-05-05 03:53 | 58.53526 | 24.69301 | 17649 ft | 318 kts | 334° |
| 2026-05-05 03:53 | 58.55645 | 24.68105 | 17276 ft | 316 kts | 335° |
| 2026-05-05 03:54 | 58.57750 | 24.66919 | 16900 ft | 315 kts | 335° |
| 2026-05-05 03:54 | 58.59847 | 24.65736 | 16532 ft | 313 kts | 335° |
| 2026-05-05 03:54 | 58.61933 | 24.64557 | 16182 ft | 312 kts | 335° |
| 2026-05-05 03:54 | 58.63989 | 24.63393 | 15844 ft | 311 kts | 335° |
| 2026-05-05 03:55 | 58.66065 | 24.62217 | 15497 ft | 311 kts | 335° |
| 2026-05-05 03:55 | 58.68140 | 24.61037 | 15152 ft | 311 kts | 335° |
| 2026-05-05 03:55 | 58.70220 | 24.59896 | 14807 ft | 313 kts | 338° |
| 2026-05-05 03:55 | 58.72430 | 24.59572 | 14442 ft | 329 kts | 359° |
| 2026-05-05 03:56 | 58.74653 | 24.60930 | 14078 ft | 343 kts | 20° |
| 2026-05-05 03:56 | 58.76748 | 24.63156 | 13735 ft | 345 kts | 24° |
| 2026-05-05 03:56 | 58.78831 | 24.65471 | 13359 ft | 345 kts | 24° |
| 2026-05-05 03:56 | 58.80925 | 24.67764 | 12986 ft | 346 kts | 23° |
| 2026-05-05 03:57 | 58.83029 | 24.70030 | 12611 ft | 346 kts | 23° |
| 2026-05-05 03:57 | 58.85117 | 24.72271 | 12232 ft | 339 kts | 22° |
| 2026-05-05 03:57 | 58.87163 | 24.74457 | 11852 ft | 334 kts | 22° |
| 2026-05-05 03:57 | 58.89184 | 24.76615 | 11479 ft | 328 kts | 23° |
| 2026-05-05 03:58 | 58.91167 | 24.78740 | 11100 ft | 323 kts | 23° |
| 2026-05-05 03:58 | 58.93098 | 24.80797 | 10739 ft | 317 kts | 23° |
| 2026-05-05 03:58 | 58.95026 | 24.82862 | 10382 ft | 316 kts | 24° |
| 2026-05-05 03:58 | 58.96949 | 24.84923 | 10027 ft | 315 kts | 24° |
| 2026-05-05 03:59 | 58.98872 | 24.86990 | 9688 ft | 315 kts | 24° |
| 2026-05-05 03:59 | 59.00778 | 24.89037 | 9335 ft | 311 kts | 24° |
| 2026-05-05 03:59 | 59.02660 | 24.91048 | 8977 ft | 307 kts | 25° |
| 2026-05-05 03:59 | 59.04518 | 24.93040 | 8607 ft | 304 kts | 25° |
| 2026-05-05 04:00 | 59.06373 | 24.95034 | 8248 ft | 305 kts | 25° |
| 2026-05-05 04:00 | 59.08226 | 24.97034 | 7889 ft | 305 kts | 25° |
| 2026-05-05 04:00 | 59.10075 | 24.99038 | 7535 ft | 302 kts | 25° |
| 2026-05-05 04:00 | 59.11896 | 25.01005 | 7187 ft | 297 kts | 25° |
| 2026-05-05 04:01 | 59.13712 | 25.02963 | 6822 ft | 298 kts | 25° |
| 2026-05-05 04:01 | 59.15525 | 25.04925 | 6456 ft | 299 kts | 26° |
| 2026-05-05 04:01 | 59.17333 | 25.06882 | 6086 ft | 294 kts | 25° |
| 2026-05-05 04:01 | 59.19086 | 25.08782 | 5721 ft | 291 kts | 25° |
| 2026-05-05 04:02 | 59.20846 | 25.10697 | 5362 ft | 288 kts | 26° |
| 2026-05-05 04:02 | 59.22598 | 25.12601 | 5082 ft | 288 kts | 25° |
| 2026-05-05 04:02 | 59.24348 | 25.14502 | 4867 ft | 288 kts | 26° |
| 2026-05-05 04:02 | 59.26090 | 25.16401 | 4573 ft | 286 kts | 26° |
| 2026-05-05 04:03 | 59.27825 | 25.18297 | 4231 ft | 286 kts | 26° |
| 2026-05-05 04:03 | 59.29545 | 25.20174 | 3885 ft | 278 kts | 26° |
| 2026-05-05 04:03 | 59.31235 | 25.22024 | 3348 ft | 276 kts | 26° |
| 2026-05-05 04:03 | 59.32917 | 25.23597 | 3167 ft | 257 kts | 10° |
| 2026-05-05 04:04 | 59.34606 | 25.23973 | 2983 ft | 235 kts | 356° |
| 2026-05-05 04:04 | 59.36194 | 25.23977 | 2782 ft | 219 kts | 355° |
| 2026-05-05 04:04 | 59.37654 | 25.23962 | 2699 ft | 201 kts | 355° |
| 2026-05-05 04:04 | 59.39002 | 25.23959 | 2574 ft | 187 kts | 355° |
| 2026-05-05 04:05 | 59.40234 | 25.23726 | 2433 ft | 168 kts | 334° |
| 2026-05-05 04:05 | 59.41003 | 25.22295 | 2216 ft | 145 kts | 286° |
| 2026-05-05 04:05 | 59.41140 | 25.20508 | 2197 ft | 129 kts | 269° |
| 2026-05-05 04:05 | 59.41179 | 25.18743 | 2192 ft | 130 kts | 269° |
| 2026-05-05 04:06 | 59.41213 | 25.16973 | 2195 ft | 129 kts | 267° |
| 2026-05-05 04:06 | 59.41227 | 25.15204 | 2201 ft | 130 kts | 266° |
| 2026-05-05 04:06 | 59.41235 | 25.13435 | 2198 ft | 129 kts | 266° |
| 2026-05-05 04:06 | 59.41241 | 25.11662 | 2195 ft | 131 kts | 265° |
| 2026-05-05 04:07 | 59.41246 | 25.09874 | 2196 ft | 131 kts | 265° |
| 2026-05-05 04:07 | 59.41252 | 25.08082 | 2188 ft | 131 kts | 265° |
| 2026-05-05 04:07 | 59.41257 | 25.06289 | 2083 ft | 131 kts | 265° |
| 2026-05-05 04:07 | 59.41262 | 25.04522 | 1926 ft | 131 kts | 265° |
| 2026-05-05 04:08 | 59.41267 | 25.02700 | 1751 ft | 132 kts | 265° |
| 2026-05-05 04:08 | 59.41273 | 25.00924 | 1578 ft | 131 kts | 265° |
| 2026-05-05 04:08 | 59.41279 | 24.99101 | 1397 ft | 132 kts | 266° |
| 2026-05-05 04:08 | 59.41292 | 24.97288 | 1228 ft | 133 kts | 266° |
| 2026-05-05 04:09 | 59.41294 | 24.95475 | 1027 ft | 132 kts | 264° |
| 2026-05-05 04:09 | 59.41291 | 24.93686 | 875 ft | 133 kts | 266° |
| 2026-05-05 04:09 | 59.41311 | 24.91883 | 683 ft | 132 kts | 266° |
| 2026-05-05 04:09 | 59.41300 | 24.90054 | 522 ft | 132 kts | 265° |
| 2026-05-05 04:10 | 59.41312 | 24.88255 | 324 ft | 132 kts | 267° |
| 2026-05-05 04:10 | 59.41319 | 24.86473 | 183 ft | 131 kts | 268° |
| 2026-05-05 04:10 | 59.41320 | 24.84807 | 167 ft | 104 kts | 273° |
| 2026-05-05 04:10 | 59.41322 | 24.83787 | 170 ft | 46 kts | 270° |
| 2026-05-05 04:11 | 59.41316 | 24.83149 | 168 ft | 47 kts | 267° |
| 2026-05-05 04:11 | 59.41309 | 24.82733 | 165 ft | 46 kts | 270° |